Time;durP1;ratioP1;P1;durP2;ratioP2;P2;SDS_P1;SDS_P2;PMS_P1;PMS_P2;Temp;Humidity;BMP_temperature;BMP_pressure;BME280_temperature;BME280_humidity;BME280_pressure;Samples;Min_cycle;Max_cycle;Signal;HPM_P1;HPM_P2
2022/05/16 00:00:28;;;;;;;;;;;;;;;12.30;100.00;95900.56;1031212;28;19968;-70
2022/05/16 00:00:59;;;;;;;;;;;;;;;12.29;100.00;95908.72;1031064;28;19917;-71
2022/05/16 00:01:29;;;;;;;;;;;;;;;12.29;100.00;95899.00;1025357;28;19922;-70
2022/05/16 00:02:00;;;;;;;;;;;;;;;12.29;100.00;95899.00;1031378;28;19976;-70
2022/05/16 00:02:30;;;;;;;;;;;;;;;12.29;100.00;95898.22;1030712;28;19922;-69
2022/05/16 00:03:01;;;;;;;;;;;;;;;12.31;100.00;95901.34;1027267;28;19933;-71
2022/05/16 00:03:31;;;;;;;;;;;;;;;12.36;100.00;95894.22;1031250;28;19914;-71
2022/05/16 00:04:02;;;;;;;;;;;;;;;12.39;100.00;95900.78;1031320;28;19953;-69
2022/05/16 00:04:36;;;;;;;;;;;;;;;12.41;100.00;95896.84;1035302;28;19918;-70
2022/05/16 00:05:06;;;;;;;;;;;;;;;12.40;100.00;95900.50;1035521;28;19914;-70
2022/05/16 00:05:36;;;;;;;;;;;;;;;12.40;100.00;95889.19;1039328;28;20323;-71
2022/05/16 00:06:07;;;;;;;;;;;;;;;12.39;100.00;95893.69;1035335;28;19917;-71
2022/05/16 00:06:37;;;;;;;;;;;;;;;12.40;100.00;95891.84;1036567;28;19918;-70
2022/05/16 00:07:07;;;;;;;;;;;;;;;12.40;100.00;95887.34;1039274;28;19964;-71
2022/05/16 00:07:38;;;;;;;;;;;;;;;12.39;100.00;95888.41;1035129;28;20351;-71
2022/05/16 00:08:08;;;;;;;;;;;;;;;12.43;100.00;95881.56;1038993;28;19962;-69
2022/05/16 00:08:38;;;;;;;;;;;;;;;12.42;100.00;95889.72;1035293;28;19956;-70
2022/05/16 00:09:09;;;;;;;;;;;;;;;12.44;100.00;95888.41;1035119;28;19910;-70
2022/05/16 00:09:39;;;;;;;;;;;;;;;12.45;100.00;95881.31;1034604;28;19913;-72
2022/05/16 00:10:09;;;;;;;;;;;;;;;12.45;100.00;95881.31;1028358;28;19923;-70
2022/05/16 00:10:39;;;;;;;;;;;;;;;12.50;100.00;95879.41;1023025;29;19915;-70
2022/05/16 00:11:10;;;;;;;;;;;;;;;12.55;100.00;95885.72;1022906;29;20001;-71
2022/05/16 00:11:40;;;;;;;;;;;;;;;12.60;100.00;95872.53;1032283;28;19914;-70
2022/05/16 00:12:11;;;;;;;;;;;;;;;12.61;100.00;95882.00;1039433;28;19968;-71
2022/05/16 00:12:42;;;;;;;;;;;;;;;12.61;100.00;95880.16;1043491;28;19972;-71
2022/05/16 00:13:12;;;;;;;;;;;;;;;12.61;100.00;95874.91;1043447;28;19952;-70
2022/05/16 00:13:42;;;;;;;;;;;;;;;12.62;100.00;95886.22;1038981;28;20734;-70
2022/05/16 00:14:12;;;;;;;;;;;;;;;12.60;100.00;95883.06;1039443;28;19924;-70
2022/05/16 00:14:43;;;;;;;;;;;;;;;12.40;100.00;95855.78;1035164;28;19924;-70
2022/05/16 00:15:15;;;;;;;;;;;;;;;12.57;100.00;95875.69;1030988;28;19920;-71
2022/05/16 00:15:45;;;;;;;;;;;;;;;12.54;100.00;95886.78;1031121;28;20370;-70
2022/05/16 00:16:15;;;;;;;;;;;;;;;12.51;100.00;95888.13;1027302;28;19915;-70
2022/05/16 00:16:45;;;;;;;;;;;;;;;12.48;100.00;95889.44;1027185;28;19918;-70
2022/05/16 00:17:16;;;;;;;;;;;;;;;12.47;100.00;95893.13;1031016;28;19925;-70
2022/05/16 00:17:46;;;;;;;;;;;;;;;12.46;100.00;95894.19;1035165;28;19968;-70
2022/05/16 00:18:16;;;;;;;;;;;;;;;12.44;100.00;95896.31;1027273;28;20652;-73
2022/05/16 00:18:47;;;;;;;;;;;;;;;12.43;100.00;95891.31;1023377;28;19974;-70
2022/05/16 00:19:17;;;;;;;;;;;;;;;12.42;100.00;95895.00;1022997;28;19914;-71
2022/05/16 00:19:47;;;;;;;;;;;;;;;12.40;100.00;95894.47;1022577;29;19910;-71
2022/05/16 00:20:18;;;;;;;;;;;;;;;12.41;100.00;95896.06;1033071;28;20004;-70
2022/05/16 00:20:48;;;;;;;;;;;;;;;12.39;100.00;95898.16;1031277;28;19914;-71
2022/05/16 00:21:18;;;;;;;;;;;;;;;12.37;100.00;95895.78;1035128;28;19918;-70
2022/05/16 00:21:49;;;;;;;;;;;;;;;12.35;100.00;95895.28;1034922;28;19921;-70
2022/05/16 00:22:22;;;;;;;;;;;;;;;12.36;100.00;95894.22;1035303;28;20405;-70
2022/05/16 00:22:52;;;;;;;;;;;;;;;12.40;100.00;95897.88;1031508;28;19959;-69
2022/05/16 00:23:22;;;;;;;;;;;;;;;12.44;100.00;95895.50;1031352;28;19913;-69
2022/05/16 00:23:53;;;;;;;;;;;;;;;12.42;100.00;95895.78;1031864;28;19914;-71
2022/05/16 00:24:28;;;;;;;;;;;;;;;12.47;100.00;95885.25;1027047;28;20297;-70
2022/05/16 00:24:58;;;;;;;;;;;;;;;12.53;100.00;95887.84;1018261;29;19921;-70
2022/05/16 00:25:28;;;;;;;;;;;;;;;12.54;100.00;95879.69;1025396;28;20498;-70
2022/05/16 00:25:59;;;;;;;;;;;;;;;12.56;100.00;95888.06;1027574;28;19914;-70
2022/05/16 00:26:29;;;;;;;;;;;;;;;12.57;100.00;95889.66;1031833;28;19926;-70
2022/05/16 00:26:59;;;;;;;;;;;;;;;12.57;100.00;95883.59;1036222;28;20245;-71
2022/05/16 00:27:34;;;;;;;;;;;;;;;12.55;100.00;95883.88;1034894;28;19956;-71
2022/05/16 00:28:04;;;;;;;;;;;;;;;12.57;100.00;95879.13;1031013;28;19917;-70
2022/05/16 00:28:34;;;;;;;;;;;;;;;12.57;100.00;95880.97;1031554;28;20144;-69
2022/05/16 00:29:08;;;;;;;;;;;;;;;12.55;100.00;95877.84;1035707;28;20529;-70
2022/05/16 00:29:42;;;;;;;;;;;;;;;12.55;100.00;95885.72;1034701;28;19913;-69
2022/05/16 00:30:13;;;;;;;;;;;;;;;12.53;100.00;95887.84;1039229;28;20004;-71
2022/05/16 00:30:44;;;;;;;;;;;;;;;12.50;100.00;95879.41;1031029;28;20005;-71
2022/05/16 00:31:14;;;;;;;;;;;;;;;12.47;100.00;95879.97;1030692;28;20409;-70
2022/05/16 00:31:44;;;;;;;;;;;;;;;12.47;100.00;95887.06;1031003;28;19958;-71
2022/05/16 00:32:16;;;;;;;;;;;;;;;12.44;100.00;95888.41;1035029;28;19985;-70
2022/05/16 00:32:48;;;;;;;;;;;;;;;12.43;100.00;95888.66;1034781;28;19917;-68
2022/05/16 00:33:18;;;;;;;;;;;;;;;12.41;100.00;95888.16;1030808;28;19978;-71
2022/05/16 00:33:49;;;;;;;;;;;;;;;12.38;100.00;95886.84;1025124;28;20042;-69
2022/05/16 00:34:19;;;;;;;;;;;;;;;12.35;100.00;95887.41;1027457;28;20003;-70
2022/05/16 00:34:49;;;;;;;;;;;;;;;12.34;100.00;95883.19;1023259;28;19914;-71
2022/05/16 00:35:20;;;;;;;;;;;;;;;12.32;100.00;95889.78;1031135;28;20711;-70
2022/05/16 00:35:50;;;;;;;;;;;;;;;12.30;100.00;95889.25;1030782;28;20670;-71
2022/05/16 00:36:21;;;;;;;;;;;;;;;12.27;100.00;95890.56;1031184;28;19910;-71
2022/05/16 00:36:51;;;;;;;;;;;;;;;12.25;100.00;95892.69;1034939;28;19913;-71
2022/05/16 00:37:21;;;;;;;;;;;;;;;12.25;100.00;95892.69;1031122;28;19910;-69
2022/05/16 00:37:52;;;;;;;;;;;;;;;12.23;100.00;95897.44;1030814;28;19920;-72
2022/05/16 00:38:22;;;;;;;;;;;;;;;12.22;100.00;95898.50;1031030;28;19918;-70
2022/05/16 00:38:55;;;;;;;;;;;;;;;12.21;100.00;95897.72;1031452;28;20486;-71
2022/05/16 00:39:25;;;;;;;;;;;;;;;12.19;100.00;95899.03;1035085;28;19924;-70
2022/05/16 00:39:56;;;;;;;;;;;;;;;12.19;100.00;95899.81;1034409;28;19964;-70
2022/05/16 00:40:26;;;;;;;;;;;;;;;12.16;100.00;95897.72;1026835;28;20756;-71
2022/05/16 00:40:57;;;;;;;;;;;;;;;12.14;100.00;95893.78;1031094;28;19913;-70
2022/05/16 00:41:27;;;;;;;;;;;;;;;12.11;100.00;95897.75;1027011;28;19923;-70
2022/05/16 00:41:57;;;;;;;;;;;;;;;12.11;100.00;95902.22;1026908;28;19914;-70
2022/05/16 00:42:28;;;;;;;;;;;;;;;12.12;100.00;95903.78;1029433;28;20467;-72
2022/05/16 00:43:02;;;;;;;;;;;;;;;12.10;100.00;95895.38;1031032;28;20073;-71
2022/05/16 00:43:41;;;;;;;;;;;;;;;12.09;100.00;95899.06;1031619;28;19922;-71
2022/05/16 00:44:12;;;;;;;;;;;;;;;12.08;100.00;95898.28;1034937;28;19924;-70
2022/05/16 00:44:42;;;;;;;;;;;;;;;12.07;100.00;95906.41;1034192;28;20059;-70
2022/05/16 00:45:13;;;;;;;;;;;;;;;12.07;100.00;95901.16;1039187;28;19960;-70
2022/05/16 00:45:43;;;;;;;;;;;;;;;12.08;100.00;95898.28;1037552;28;19921;-69
2022/05/16 00:46:14;;;;;;;;;;;;;;;12.07;100.00;95903.78;1031201;28;20713;-70
2022/05/16 00:46:45;;;;;;;;;;;;;;;12.08;100.00;95903.53;1034975;28;20403;-69
2022/05/16 00:47:16;;;;;;;;;;;;;;;12.07;100.00;95895.91;1035264;28;19925;-69
2022/05/16 00:47:46;;;;;;;;;;;;;;;12.07;100.00;95906.41;1039046;28;19924;-70
2022/05/16 00:48:16;;;;;;;;;;;;;;;12.09;100.00;95901.69;1039230;28;19917;-71
2022/05/16 00:48:47;;;;;;;;;;;;;;;12.08;100.00;95903.53;1034904;28;20343;-71
2022/05/16 00:49:24;;;;;;;;;;;;;;;12.06;100.00;95899.59;1034951;28;19925;-70
2022/05/16 00:49:54;;;;;;;;;;;;;;;12.03;100.00;95899.06;1034558;28;20399;-70
2022/05/16 00:50:25;;;;;;;;;;;;;;;12.02;100.00;95894.88;1027899;28;19918;-71
2022/05/16 00:50:55;;;;;;;;;;;;;;;12.02;100.00;95900.13;1027103;28;19952;-71
2022/05/16 00:51:28;;;;;;;;;;;;;;;12.02;100.00;95899.34;1022826;28;20328;-71
2022/05/16 00:52:16;;;;;;;;;;;;;;;12.05;100.00;95893.53;1023544;28;19907;-70
2022/05/16 00:52:47;;;;;;;;;;;;;;;12.12;100.00;95898.53;1029217;28;19916;-71
2022/05/16 00:53:17;;;;;;;;;;;;;;;12.15;100.00;95898.00;1033871;28;19995;-71
2022/05/16 00:53:48;;;;;;;;;;;;;;;12.20;100.00;95896.13;1033240;28;19905;-71
2022/05/16 00:54:19;;;;;;;;;;;;;;;12.26;100.00;95894.25;1032731;28;20379;-71
2022/05/16 00:55:10;;;;;;;;;;;;;;;12.30;100.00;95895.28;1022577;28;20383;-71
2022/05/16 00:55:42;;;;;;;;;;;;;;;12.39;100.00;95887.63;1025644;28;19941;-70
2022/05/16 00:56:13;;;;;;;;;;;;;;;12.38;100.00;95886.84;1026566;28;19910;-70
2022/05/16 00:56:43;;;;;;;;;;;;;;;12.48;100.00;95886.81;1033092;28;19956;-70
2022/05/16 00:57:17;;;;;;;;;;;;;;;12.55;100.00;95885.72;1027297;28;19913;-71
2022/05/16 00:57:47;;;;;;;;;;;;;;;12.64;100.00;95878.81;1028185;28;20380;-70
2022/05/16 00:58:19;;;;;;;;;;;;;;;12.69;100.00;95881.44;1029802;28;19910;-71
2022/05/16 00:58:49;;;;;;;;;;;;;;;12.72;100.00;95875.63;1031401;28;20354;-70
2022/05/16 00:59:22;;;;;;;;;;;;;;;12.72;100.00;95880.91;1035231;28;19912;-71
2022/05/16 00:59:54;;;;;;;;;;;;;;;12.71;100.00;95881.97;1030115;28;19910;-71
2022/05/16 01:00:26;;;;;;;;;;;;;;;12.70;100.00;95875.88;1023599;28;19964;-70
2022/05/16 01:00:56;;;;;;;;;;;;;;;12.69;100.00;95878.81;1021967;28;20553;-71
2022/05/16 01:04:56;;;;;;;;;;;;;;;12.65;100.00;95869.88;1033148;28;19972;-71
2022/05/16 01:05:26;;;;;;;;;;;;;;;12.63;100.00;95864.09;1031758;28;19956;-70
2022/05/16 01:05:56;;;;;;;;;;;;;;;12.62;100.00;95870.44;1031043;28;20791;-71
2022/05/16 01:06:27;;;;;;;;;;;;;;;12.62;100.00;95867.78;1026942;28;20023;-70
2022/05/16 01:06:57;;;;;;;;;;;;;;;12.59;100.00;95871.75;1034939;28;19910;-70
2022/05/16 01:07:31;;;;;;;;;;;;;;;12.59;100.00;95865.69;1035158;28;19909;-71
2022/05/16 01:08:02;;;;;;;;;;;;;;;12.58;100.00;95869.41;1039004;28;20004;-72
2022/05/16 01:08:33;;;;;;;;;;;;;;;12.54;100.00;95868.34;1028101;28;19913;-70
2022/05/16 01:09:03;;;;;;;;;;;;;;;12.53;100.00;95872.81;1031577;28;20339;-70
2022/05/16 01:09:34;;;;;;;;;;;;;;;12.51;100.00;95874.97;1034569;28;19914;-70
2022/05/16 01:10:05;;;;;;;;;;;;;;;12.46;100.00;95867.84;1030869;28;19917;-71
2022/05/16 01:10:35;;;;;;;;;;;;;;;12.45;100.00;95870.78;1035029;28;20698;-71
2022/05/16 01:11:06;;;;;;;;;;;;;;;12.42;100.00;95869.47;1026862;28;19914;-70
2022/05/16 01:11:37;;;;;;;;;;;;;;;12.39;100.00;95870.00;1031400;28;19906;-69
2022/05/16 01:12:07;;;;;;;;;;;;;;;12.35;100.00;95871.59;1026752;28;19917;-70
2022/05/16 01:12:39;;;;;;;;;;;;;;;12.30;100.00;95874.25;1030909;28;19938;-71
2022/05/16 01:13:09;;;;;;;;;;;;;;;12.26;100.00;95878.47;1027097;28;20308;-70
2022/05/16 01:13:40;;;;;;;;;;;;;;;12.22;100.00;95878.22;1034399;28;19918;-69
2022/05/16 01:14:10;;;;;;;;;;;;;;;12.18;100.00;95871.16;1039425;28;19910;-71
2022/05/16 01:14:50;;;;;;;;;;;;;;;12.17;100.00;95877.44;1043150;28;19956;-70
2022/05/16 01:15:27;;;;;;;;;;;;;;;12.14;100.00;95880.63;1036140;28;19920;-71
2022/05/16 01:15:58;;;;;;;;;;;;;;;12.11;100.00;95874.06;1030743;28;19910;-72
2022/05/16 01:16:28;;;;;;;;;;;;;;;12.09;100.00;95878.00;1026769;28;20021;-70
2022/05/16 01:16:59;;;;;;;;;;;;;;;12.08;100.00;95876.44;1024922;28;19915;-72
2022/05/16 01:17:29;;;;;;;;;;;;;;;12.05;100.00;95875.13;1026738;28;20009;-70
2022/05/16 01:17:59;;;;;;;;;;;;;;;12.03;100.00;95880.66;1030825;28;19945;-71
2022/05/16 01:18:30;;;;;;;;;;;;;;;12.03;100.00;95879.88;1034932;28;19914;-71
2022/05/16 01:19:00;;;;;;;;;;;;;;;12.02;100.00;95878.28;1038998;28;19916;-70
2022/05/16 01:19:30;;;;;;;;;;;;;;;12.00;100.00;95881.22;1038784;28;19991;-70
2022/05/16 01:20:01;;;;;;;;;;;;;;;11.97;100.00;95884.38;1034353;28;19993;-72
2022/05/16 01:20:43;;;;;;;;;;;;;;;11.98;100.00;95880.69;1038913;28;20624;-71
2022/05/16 01:21:17;;;;;;;;;;;;;;;11.97;100.00;95884.38;1038999;28;19928;-71
2022/05/16 01:21:47;;;;;;;;;;;;;;;11.96;100.00;95890.66;1036186;28;19999;-70
2022/05/16 01:22:18;;;;;;;;;;;;;;;11.97;100.00;95887.00;1030971;28;20371;-72
2022/05/16 01:22:49;;;;;;;;;;;;;;;11.97;100.00;95886.19;1030746;28;19918;-72
2022/05/16 01:23:20;;;;;;;;;;;;;;;11.96;100.00;95895.13;1030879;28;19917;-71
2022/05/16 01:23:51;;;;;;;;;;;;;;;11.96;100.00;95888.03;1030708;28;19925;-71
2022/05/16 01:24:22;;;;;;;;;;;;;;;11.96;100.00;95889.88;1030746;28;19927;-70
2022/05/16 01:24:52;;;;;;;;;;;;;;;11.95;100.00;95889.09;1021056;29;19925;-69
2022/05/16 01:25:27;;;;;;;;;;;;;;;11.95;100.00;95883.84;1020750;28;20046;-70
2022/05/16 01:25:57;;;;;;;;;;;;;;;11.96;100.00;95885.41;1023379;28;20393;-70
2022/05/16 01:26:29;;;;;;;;;;;;;;;11.95;100.00;95891.72;1027051;28;19918;-71
2022/05/16 01:27:00;;;;;;;;;;;;;;;11.95;100.00;95898.84;1020148;28;19925;-70
2022/05/16 01:27:59;;;;;;;;;;;;;;;11.94;100.00;95895.41;1022898;29;20320;-71
2022/05/16 01:28:35;;;;;;;;;;;;;;;11.91;100.00;95888.06;1027193;28;20020;-70
2022/05/16 01:29:06;;;;;;;;;;;;;;;11.90;100.00;95889.09;1043305;28;19971;-71
2022/05/16 01:29:36;;;;;;;;;;;;;;;11.89;100.00;95887.53;1042626;28;19927;-70
2022/05/16 01:30:07;;;;;;;;;;;;;;;11.88;100.00;95891.22;1038266;28;20603;-70
2022/05/16 01:30:40;;;;;;;;;;;;;;;11.85;100.00;95889.13;1038983;28;19928;-69
2022/05/16 01:31:10;;;;;;;;;;;;;;;11.86;100.00;95895.94;1034862;28;19928;-71
2022/05/16 01:31:41;;;;;;;;;;;;;;;11.85;100.00;95889.13;1030636;28;19952;-71
2022/05/16 01:32:11;;;;;;;;;;;;;;;11.84;100.00;95891.97;1031072;28;19918;-71
2022/05/16 01:32:41;;;;;;;;;;;;;;;11.84;100.00;95891.97;1030824;28;19918;-71
2022/05/16 01:33:12;;;;;;;;;;;;;;;11.83;100.00;95895.66;1022903;29;20589;-72
2022/05/16 01:33:43;;;;;;;;;;;;;;;11.84;100.00;95895.44;1022768;28;19922;-71
2022/05/16 01:34:13;;;;;;;;;;;;;;;11.81;100.00;95890.69;1026894;28;19918;-71
2022/05/16 01:34:43;;;;;;;;;;;;;;;11.83;100.00;95893.03;1030966;28;19921;-71
2022/05/16 01:35:17;;;;;;;;;;;;;;;11.84;100.00;95891.97;1030862;28;19922;-71
2022/05/16 01:35:48;;;;;;;;;;;;;;;11.83;100.00;95888.56;1027018;28;19969;-71
2022/05/16 01:36:21;;;;;;;;;;;;;;;11.83;100.00;95896.44;1028558;28;20483;-71
2022/05/16 01:36:51;;;;;;;;;;;;;;;11.84;100.00;95897.22;1034902;28;19925;-71
2022/05/16 01:38:18;;;;;;;;;;;;;;;11.87;100.00;95894.09;1026690;28;19958;-70
2022/05/16 01:38:26;;;;;;;;;;;;;;;11.91;100.00;95892.53;1022725;29;19966;-71
2022/05/16 01:38:56;;;;;;;;;;;;;;;11.92;100.00;95892.25;1025577;28;19933;-70
2022/05/16 01:39:27;;;;;;;;;;;;;;;11.95;100.00;95889.09;1035267;28;19945;-71
2022/05/16 01:39:57;;;;;;;;;;;;;;;11.98;100.00;95893.81;1036407;28;19957;-70
2022/05/16 01:40:27;;;;;;;;;;;;;;;11.99;100.00;95890.13;1034556;28;19917;-71
2022/05/16 01:40:57;;;;;;;;;;;;;;;12.00;100.00;95891.72;1038987;28;19921;-70
2022/05/16 01:41:28;;;;;;;;;;;;;;;12.02;100.00;95884.34;1039009;28;19927;-71
2022/05/16 01:41:58;;;;;;;;;;;;;;;12.01;100.00;95888.03;1034834;28;19922;-72
2022/05/16 01:42:28;;;;;;;;;;;;;;;12.00;100.00;95891.72;1026288;28;19926;-71
2022/05/16 01:42:59;;;;;;;;;;;;;;;12.01;100.00;95884.63;1023088;28;20518;-71
2022/05/16 01:43:33;;;;;;;;;;;;;;;12.00;100.00;95881.22;1026553;28;19918;-70
2022/05/16 01:44:04;;;;;;;;;;;;;;;11.99;100.00;95884.88;1022543;29;19910;-70
2022/05/16 01:44:34;;;;;;;;;;;;;;;11.98;100.00;95885.94;1023454;28;19914;-70
2022/05/16 01:45:08;;;;;;;;;;;;;;;11.95;100.00;95891.72;1027311;28;19910;-71
2022/05/16 01:45:39;;;;;;;;;;;;;;;11.95;100.00;95889.09;1035363;28;20302;-70
2022/05/16 01:46:11;;;;;;;;;;;;;;;11.94;100.00;95892.78;1030784;28;19998;-72
2022/05/16 01:46:41;;;;;;;;;;;;;;;11.93;100.00;95888.56;1027372;28;19910;-69
2022/05/16 01:47:11;;;;;;;;;;;;;;;11.92;100.00;95888.84;1030722;28;20292;-70
2022/05/16 01:47:42;;;;;;;;;;;;;;;11.89;100.00;95890.16;1027016;28;19906;-69
2022/05/16 01:48:13;;;;;;;;;;;;;;;11.89;100.00;95890.16;1027611;28;19902;-71
2022/05/16 01:48:43;;;;;;;;;;;;;;;11.89;100.00;95890.16;1023462;29;19914;-71
2022/05/16 01:49:14;;;;;;;;;;;;;;;11.89;100.00;95884.13;1019215;28;19911;-71
2022/05/16 01:49:44;;;;;;;;;;;;;;;11.89;100.00;95892.00;1019449;28;20484;-70
2022/05/16 01:50:14;;;;;;;;;;;;;;;11.88;100.00;95888.59;1027494;28;19961;-71
2022/05/16 01:50:45;;;;;;;;;;;;;;;11.88;100.00;95893.84;1035928;28;19916;-71
2022/05/16 01:51:15;;;;;;;;;;;;;;;11.88;100.00;95893.06;1043377;28;20000;-73
2022/05/16 01:51:45;;;;;;;;;;;;;;;11.87;100.00;95894.09;1043289;28;19990;-71
2022/05/16 01:52:16;;;;;;;;;;;;;;;11.88;100.00;95900.97;1043255;28;19966;-71
2022/05/16 01:52:46;;;;;;;;;;;;;;;11.88;100.00;95904.38;1038663;28;20391;-70
2022/05/16 01:53:17;;;;;;;;;;;;;;;11.89;100.00;95898.06;1034621;28;19912;-71
2022/05/16 01:53:47;;;;;;;;;;;;;;;11.90;100.00;95906.72;1030901;28;19902;-70
2022/05/16 01:54:17;;;;;;;;;;;;;;;11.89;100.00;95899.91;1030670;28;19910;-70
2022/05/16 01:54:48;;;;;;;;;;;;;;;11.89;100.00;95905.94;1027371;28;20299;-71
2022/05/16 01:55:18;;;;;;;;;;;;;;;11.89;100.00;95915.66;1023462;29;19914;-71
2022/05/16 01:55:48;;;;;;;;;;;;;;;11.88;100.00;95903.59;1021973;28;20447;-72
2022/05/16 01:56:19;;;;;;;;;;;;;;;11.89;100.00;95905.16;1027312;28;19994;-73
2022/05/16 01:56:49;;;;;;;;;;;;;;;11.87;100.00;95908.06;1031631;28;19914;-71
2022/05/16 01:57:19;;;;;;;;;;;;;;;11.86;100.00;95909.09;1035352;28;19914;-70
2022/05/16 01:57:49;;;;;;;;;;;;;;;11.86;100.00;95914.34;1039503;28;19913;-71
2022/05/16 01:58:20;;;;;;;;;;;;;;;11.86;100.00;95908.31;1039302;28;19963;-71
2022/05/16 01:58:50;;;;;;;;;;;;;;;11.87;100.00;95905.44;1035206;28;20556;-71
2022/05/16 01:59:20;;;;;;;;;;;;;;;11.89;100.00;95910.41;1035194;28;20000;-71
2022/05/16 01:59:51;;;;;;;;;;;;;;;11.93;100.00;95906.19;1034823;28;20330;-72
2022/05/16 02:00:21;;;;;;;;;;;;;;;11.93;100.00;95906.97;1035599;28;19916;-70
2022/05/16 02:00:51;;;;;;;;;;;;;;;11.93;100.00;95904.34;1031638;28;19906;-71
2022/05/16 02:01:22;;;;;;;;;;;;;;;11.94;100.00;95895.41;1031169;28;20011;-69
2022/05/16 02:01:52;;;;;;;;;;;;;;;11.99;100.00;95902.50;1027421;28;19912;-71
2022/05/16 02:02:22;;;;;;;;;;;;;;;12.06;100.00;95900.38;1023486;29;19919;-70
2022/05/16 02:02:53;;;;;;;;;;;;;;;12.08;100.00;95905.38;1031475;28;20510;-70
2022/05/16 02:03:23;;;;;;;;;;;;;;;12.14;100.00;95896.41;1030184;28;19918;-70
2022/05/16 02:03:53;;;;;;;;;;;;;;;12.16;100.00;95897.72;1035553;28;19909;-72
2022/05/16 02:04:23;;;;;;;;;;;;;;;12.21;100.00;95902.19;1035432;28;20006;-70
2022/05/16 02:04:54;;;;;;;;;;;;;;;12.23;100.00;95897.44;1035452;28;19921;-70
2022/05/16 02:05:24;;;;;;;;;;;;;;;12.26;100.00;95894.25;1039480;28;19970;-71
2022/05/16 02:05:55;;;;;;;;;;;;;;;12.27;100.00;95898.47;1031534;28;20311;-71
2022/05/16 02:06:29;;;;;;;;;;;;;;;12.26;100.00;95899.53;1027451;28;20070;-70
2022/05/16 02:06:59;;;;;;;;;;;;;;;12.26;100.00;95894.25;1023500;29;19921;-71
2022/05/16 02:07:29;;;;;;;;;;;;;;;12.26;100.00;95900.31;1020550;28;19938;-71
2022/05/16 02:08:00;;;;;;;;;;;;;;;12.25;100.00;95897.97;1028482;28;19966;-71
2022/05/16 02:08:30;;;;;;;;;;;;;;;12.25;100.00;95897.97;1031337;28;19918;-70
2022/05/16 02:09:00;;;;;;;;;;;;;;;12.23;100.00;95905.31;1035765;28;19918;-70
2022/05/16 02:09:30;;;;;;;;;;;;;;;12.22;100.00;95904.53;1039472;28;19917;-71
2022/05/16 02:10:01;;;;;;;;;;;;;;;12.21;100.00;95902.97;1034691;28;19921;-69
2022/05/16 02:10:34;;;;;;;;;;;;;;;12.21;100.00;95902.19;1039811;28;20350;-71
2022/05/16 02:11:05;;;;;;;;;;;;;;;12.19;100.00;95905.06;1039535;28;19913;-71
2022/05/16 02:11:35;;;;;;;;;;;;;;;12.19;100.00;95902.44;1039505;28;19970;-70
2022/05/16 02:12:06;;;;;;;;;;;;;;;12.16;100.00;95904.81;1040000;28;19921;-71
2022/05/16 02:12:36;;;;;;;;;;;;;;;12.16;100.00;95904.81;1044097;28;19924;-70
2022/05/16 02:13:08;;;;;;;;;;;;;;;12.15;100.00;95904.03;1035665;28;20143;-70
2022/05/16 02:13:39;;;;;;;;;;;;;;;12.15;100.00;95901.41;1027258;28;19914;-70
2022/05/16 02:14:09;;;;;;;;;;;;;;;12.15;100.00;95900.63;1023486;29;19946;-70
2022/05/16 02:14:39;;;;;;;;;;;;;;;12.14;100.00;95897.22;1023905;28;19919;-71
2022/05/16 02:15:11;;;;;;;;;;;;;;;12.16;100.00;95899.56;1027226;28;20399;-71
2022/05/16 02:15:42;;;;;;;;;;;;;;;12.18;100.00;95903.50;1031662;28;19918;-70
2022/05/16 02:16:12;;;;;;;;;;;;;;;12.20;100.00;95904.00;1035695;28;19913;-71
2022/05/16 02:16:42;;;;;;;;;;;;;;;12.22;100.00;95898.50;1039717;28;20362;-70
2022/05/16 02:17:13;;;;;;;;;;;;;;;12.23;100.00;95905.31;1031599;28;19925;-71
2022/05/16 02:17:43;;;;;;;;;;;;;;;12.23;100.00;95900.84;1027581;28;19915;-70
2022/05/16 02:18:14;;;;;;;;;;;;;;;12.25;100.00;95900.59;1027363;28;19918;-70
2022/05/16 02:18:44;;;;;;;;;;;;;;;12.29;100.00;95896.34;1027362;28;19945;-69
2022/05/16 02:19:14;;;;;;;;;;;;;;;12.31;100.00;95896.88;1031585;28;19956;-70
2022/05/16 02:19:44;;;;;;;;;;;;;;;12.33;100.00;95897.38;1035040;28;19914;-70
2022/05/16 02:20:15;;;;;;;;;;;;;;;12.37;100.00;95895.78;1035273;28;19921;-71
2022/05/16 02:20:45;;;;;;;;;;;;;;;12.38;100.00;95899.22;1035523;28;19909;-71
2022/05/16 02:24:39;;;;;;;;;;;;;;;12.46;100.00;95890.75;1036209;28;19930;-71
2022/05/16 02:25:10;;;;;;;;;;;;;;;12.46;100.00;95898.66;1035427;28;19925;-70
2022/05/16 02:25:44;;;;;;;;;;;;;;;12.46;100.00;95883.66;1031519;28;19921;-72
2022/05/16 02:26:14;;;;;;;;;;;;;;;12.47;100.00;95889.69;1032942;28;20015;-71
2022/05/16 02:26:47;;;;;;;;;;;;;;;12.48;100.00;95892.06;1023534;29;19930;-70
2022/05/16 02:27:17;;;;;;;;;;;;;;;12.47;100.00;95895.78;1030939;28;19954;-71
2022/05/16 02:27:48;;;;;;;;;;;;;;;12.49;100.00;95896.28;1031053;28;19973;-71
2022/05/16 02:28:18;;;;;;;;;;;;;;;12.49;100.00;95888.38;1024560;28;19914;-71
2022/05/16 02:28:49;;;;;;;;;;;;;;;12.50;100.00;95889.94;1033591;28;19945;-71
2022/05/16 02:29:19;;;;;;;;;;;;;;;12.50;100.00;95895.19;1035677;28;19917;-71
2022/05/16 02:29:49;;;;;;;;;;;;;;;12.51;100.00;95890.75;1034772;28;19921;-70
2022/05/16 02:30:23;;;;;;;;;;;;;;;12.49;100.00;95883.09;1035332;28;19972;-71
2022/05/16 02:30:53;;;;;;;;;;;;;;;12.52;100.00;95891.53;1032050;28;20001;-70
2022/05/16 02:31:24;;;;;;;;;;;;;;;12.52;100.00;95886.28;1027795;28;19914;-70
2022/05/16 02:31:54;;;;;;;;;;;;;;;12.54;100.00;95884.94;1027416;28;19922;-71
2022/05/16 02:32:25;;;;;;;;;;;;;;;12.55;100.00;95880.47;1027715;28;20289;-71
2022/05/16 02:32:55;;;;;;;;;;;;;;;12.56;100.00;95879.41;1027480;28;19928;-71
2022/05/16 02:33:26;;;;;;;;;;;;;;;12.58;100.00;95882.56;1035674;28;19976;-71
2022/05/16 02:33:59;;;;;;;;;;;;;;;12.58;100.00;95885.19;1035475;28;20035;-70
2022/05/16 02:34:32;;;;;;;;;;;;;;;12.59;100.00;95884.13;1035246;28;19996;-71
2022/05/16 02:35:02;;;;;;;;;;;;;;;12.59;100.00;95881.50;1031472;28;19914;-71
2022/05/16 02:35:33;;;;;;;;;;;;;;;12.60;100.00;95883.06;1023270;28;19942;-70
2022/05/16 02:36:03;;;;;;;;;;;;;;;12.62;100.00;95878.31;1023844;28;19914;-70
2022/05/16 02:36:33;;;;;;;;;;;;;;;12.63;100.00;95882.53;1027414;28;20368;-70
2022/05/16 02:37:06;;;;;;;;;;;;;;;12.63;100.00;95877.25;1031277;28;19918;-70
2022/05/16 02:37:37;;;;;;;;;;;;;;;12.62;100.00;95881.75;1031630;28;20013;-71
2022/05/16 02:38:07;;;;;;;;;;;;;;;12.62;100.00;95880.94;1031755;28;19917;-71
2022/05/16 02:38:38;;;;;;;;;;;;;;;12.61;100.00;95882.00;1035099;28;19917;-71
2022/05/16 02:39:08;;;;;;;;;;;;;;;12.61;100.00;95882.00;1031476;28;20323;-70
2022/05/16 02:39:38;;;;;;;;;;;;;;;12.62;100.00;95883.59;1030824;28;19917;-70
2022/05/16 02:40:09;;;;;;;;;;;;;;;12.61;100.00;95879.34;1031373;28;19921;-71
2022/05/16 02:40:39;;;;;;;;;;;;;;;12.59;100.00;95877.00;1029235;28;19929;-71
2022/05/16 02:41:10;;;;;;;;;;;;;;;12.59;100.00;95882.28;1035338;28;19993;-71
2022/05/16 02:41:40;;;;;;;;;;;;;;;12.59;100.00;95884.13;1035653;28;20358;-70
2022/05/16 02:42:11;;;;;;;;;;;;;;;12.60;100.00;95877.78;1035279;28;20283;-71
2022/05/16 02:42:41;;;;;;;;;;;;;;;12.57;100.00;95879.13;1027294;28;19931;-70
2022/05/16 02:43:11;;;;;;;;;;;;;;;12.57;100.00;95879.13;1031577;28;19913;-71
2022/05/16 02:43:42;;;;;;;;;;;;;;;12.56;100.00;95882.81;1031245;28;19910;-70
2022/05/16 02:44:12;;;;;;;;;;;;;;;12.56;100.00;95882.03;1035291;28;19913;-70
2022/05/16 02:44:43;;;;;;;;;;;;;;;12.55;100.00;95886.50;1035369;28;19920;-71
2022/05/16 02:45:13;;;;;;;;;;;;;;;12.56;100.00;95882.03;1035464;28;19920;-71
2022/05/16 02:45:43;;;;;;;;;;;;;;;12.56;100.00;95884.66;1031306;28;19917;-71
2022/05/16 02:46:13;;;;;;;;;;;;;;;12.56;100.00;95877.56;1035575;28;20470;-70
2022/05/16 02:46:47;;;;;;;;;;;;;;;12.56;100.00;95884.66;1039478;28;20000;-71
2022/05/16 02:47:17;;;;;;;;;;;;;;;12.54;100.00;95884.94;1039833;28;19909;-71